sensor_id;sensor_type;location;lat;lon;timestamp;pressure;altitude;pressure_sealevel;temperature;humidity
44140;BME280;29803;51.048;4.686;2022-10-26T00:01:08;101252.31;;;11.79;100.00
44140;BME280;29803;51.048;4.686;2022-10-26T00:03:41;101243.75;;;11.76;100.00
44140;BME280;29803;51.048;4.686;2022-10-26T00:08:44;101245.41;;;11.68;100.00
44140;BME280;29803;51.048;4.686;2022-10-26T00:11:16;101242.06;;;11.66;100.00
44140;BME280;29803;51.048;4.686;2022-10-26T00:13:47;101233.28;;;11.64;100.00
44140;BME280;29803;51.048;4.686;2022-10-26T00:16:24;101233.63;;;11.61;100.00
44140;BME280;29803;51.048;4.686;2022-10-26T00:18:55;101223.91;;;11.60;100.00
44140;BME280;29803;51.048;4.686;2022-10-26T00:21:26;101223.91;;;11.60;100.00
44140;BME280;29803;51.048;4.686;2022-10-26T00:23:58;101221.34;;;11.59;100.00
44140;BME280;29803;51.048;4.686;2022-10-26T00:26:29;101220.38;;;11.60;100.00
44140;BME280;29803;51.048;4.686;2022-10-26T00:28:59;101215.97;;;11.59;100.00
44140;BME280;29803;51.048;4.686;2022-10-26T00:31:30;101215.84;;;11.60;100.00
44140;BME280;29803;51.048;4.686;2022-10-26T00:34:00;101215.34;;;11.65;100.00
44140;BME280;29803;51.048;4.686;2022-10-26T00:36:31;101214.16;;;11.67;100.00
44140;BME280;29803;51.048;4.686;2022-10-26T00:39:02;101218.22;;;11.72;100.00
44140;BME280;29803;51.048;4.686;2022-10-26T00:41:33;101209.31;;;11.71;100.00
44140;BME280;29803;51.048;4.686;2022-10-26T00:47:31;101210.47;;;11.68;100.00
44140;BME280;29803;51.048;4.686;2022-10-26T00:50:09;101208.13;;;11.65;100.00
44140;BME280;29803;51.048;4.686;2022-10-26T00:52:41;101209.09;;;11.64;100.00
44140;BME280;29803;51.048;4.686;2022-10-26T00:55:12;101210.28;;;11.62;100.00
44140;BME280;29803;51.048;4.686;2022-10-26T00:57:42;101211.78;;;11.64;100.00
44140;BME280;29803;51.048;4.686;2022-10-26T01:00:13;101212.66;;;11.65;100.00
44140;BME280;29803;51.048;4.686;2022-10-26T01:02:44;101207.44;;;11.63;100.00
44140;BME280;29803;51.048;4.686;2022-10-26T01:05:17;101199.53;;;11.62;100.00
44140;BME280;29803;51.048;4.686;2022-10-26T01:07:49;101191.66;;;11.60;100.00
44140;BME280;29803;51.048;4.686;2022-10-26T01:10:21;101189.94;;;11.59;100.00
44140;BME280;29803;51.048;4.686;2022-10-26T01:12:54;101190.13;;;11.58;100.00
44140;BME280;29803;51.048;4.686;2022-10-26T01:18:39;101191.97;;;11.57;100.00
44140;BME280;29803;51.048;4.686;2022-10-26T01:21:44;101190.94;;;11.58;100.00
44140;BME280;29803;51.048;4.686;2022-10-26T01:32:49;101184.09;;;11.56;100.00
44140;BME280;29803;51.048;4.686;2022-10-26T01:40:58;101179.03;;;11.45;100.00
44140;BME280;29803;51.048;4.686;2022-10-26T01:43:34;101170.44;;;11.41;100.00
44140;BME280;29803;51.048;4.686;2022-10-26T01:46:06;101170.44;;;11.41;100.00
44140;BME280;29803;51.048;4.686;2022-10-26T01:48:40;101168.75;;;11.40;100.00
44140;BME280;29803;51.048;4.686;2022-10-26T01:51:12;101169.91;;;11.37;100.00
44140;BME280;29803;51.048;4.686;2022-10-26T01:53:45;101163.53;;;11.38;100.00
44140;BME280;29803;51.048;4.686;2022-10-26T01:56:24;101162.53;;;11.39;100.00
44140;BME280;29803;51.048;4.686;2022-10-26T02:01:53;101157.66;;;11.43;100.00
44140;BME280;29803;51.048;4.686;2022-10-26T02:04:34;101158.84;;;11.40;100.00
44140;BME280;29803;51.048;4.686;2022-10-26T02:13:13;101159.19;;;11.37;100.00
44140;BME280;29803;51.048;4.686;2022-10-26T02:18:40;101151.28;;;11.36;100.00
44140;BME280;29803;51.048;4.686;2022-10-26T02:21:18;101151.44;;;11.34;100.00
44140;BME280;29803;51.048;4.686;2022-10-26T02:23:51;101151.44;;;11.34;100.00
44140;BME280;29803;51.048;4.686;2022-10-26T02:26:27;101148.75;;;11.34;100.00
44140;BME280;29803;51.048;4.686;2022-10-26T02:29:01;101155.97;;;11.34;100.00
44140;BME280;29803;51.048;4.686;2022-10-26T02:31:35;101154.97;;;11.35;100.00
44140;BME280;29803;51.048;4.686;2022-10-26T02:34:10;101146.06;;;11.34;100.00
44140;BME280;29803;51.048;4.686;2022-10-26T02:36:43;101145.06;;;11.35;100.00
44140;BME280;29803;51.048;4.686;2022-10-26T02:39:17;101143.22;;;11.36;100.00
44140;BME280;29803;51.048;4.686;2022-10-26T02:41:49;101139.72;;;11.35;100.00
44140;BME280;29803;51.048;4.686;2022-10-26T02:44:26;101137.84;;;11.36;100.00
44140;BME280;29803;51.048;4.686;2022-10-26T02:46:58;101133.16;;;11.38;100.00
44140;BME280;29803;51.048;4.686;2022-10-26T02:49:29;101130.16;;;11.41;100.00
44140;BME280;29803;51.048;4.686;2022-10-26T02:52:17;101129.78;;;11.44;100.00
44140;BME280;29803;51.048;4.686;2022-10-26T02:55:00;101131.16;;;11.48;100.00
44140;BME280;29803;51.048;4.686;2022-10-26T02:57:35;101132.34;;;11.54;100.00
44140;BME280;29803;51.048;4.686;2022-10-26T03:00:12;101137.22;;;11.58;100.00
44140;BME280;29803;51.048;4.686;2022-10-26T03:02:49;101141.25;;;11.62;100.00
44140;BME280;29803;51.048;4.686;2022-10-26T03:05:29;101129.34;;;11.65;100.00
44140;BME280;29803;51.048;4.686;2022-10-26T03:08:02;101132.38;;;11.70;100.00
44140;BME280;29803;51.048;4.686;2022-10-26T03:10:43;101132.38;;;11.70;100.00
44140;BME280;29803;51.048;4.686;2022-10-26T03:13:14;101132.19;;;11.72;100.00
44140;BME280;29803;51.048;4.686;2022-10-26T03:15:44;101131.88;;;11.75;100.00
44140;BME280;29803;51.048;4.686;2022-10-26T03:18:15;101131.53;;;11.78;100.00
44140;BME280;29803;51.048;4.686;2022-10-26T03:20:45;101128.53;;;11.81;100.00
44140;BME280;29803;51.048;4.686;2022-10-26T03:23:16;101133.56;;;11.84;100.00
44140;BME280;29803;51.048;4.686;2022-10-26T03:25:46;101133.25;;;11.87;100.00
44140;BME280;29803;51.048;4.686;2022-10-26T03:28:17;101133.91;;;11.89;100.00
44140;BME280;29803;51.048;4.686;2022-10-26T03:30:47;101142.81;;;11.89;100.00
44140;BME280;29803;51.048;4.686;2022-10-26T03:33:18;101142.66;;;11.91;100.00
44140;BME280;29803;51.048;4.686;2022-10-26T03:35:55;101147.03;;;11.92;100.00
44140;BME280;29803;51.048;4.686;2022-10-26T03:38:26;101144.16;;;11.93;100.00
44140;BME280;29803;51.048;4.686;2022-10-26T03:40:56;101140.47;;;11.95;100.00
44140;BME280;29803;51.048;4.686;2022-10-26T03:43:26;101141.31;;;11.95;100.00
44140;BME280;29803;51.048;4.686;2022-10-26T03:45:57;101136.09;;;11.93;100.00
44140;BME280;29803;51.048;4.686;2022-10-26T03:48:27;101138.47;;;11.97;100.00
44140;BME280;29803;51.048;4.686;2022-10-26T03:50:59;101139.97;;;11.99;100.00
44140;BME280;29803;51.048;4.686;2022-10-26T03:53:29;101130.72;;;12.02;100.00
44140;BME280;29803;51.048;4.686;2022-10-26T03:56:00;101124.16;;;12.04;100.00
44140;BME280;29803;51.048;4.686;2022-10-26T03:58:30;101130.22;;;12.06;100.00
44140;BME280;29803;51.048;4.686;2022-10-26T04:01:01;101129.22;;;12.07;100.00
44140;BME280;29803;51.048;4.686;2022-10-26T04:03:31;101126.34;;;12.09;100.00
44140;BME280;29803;51.048;4.686;2022-10-26T04:06:02;101125.34;;;12.10;100.00
44140;BME280;29803;51.048;4.686;2022-10-26T04:08:33;101128.03;;;12.10;100.00
44140;BME280;29803;51.048;4.686;2022-10-26T04:11:04;101130.56;;;12.11;100.00
44140;BME280;29803;51.048;4.686;2022-10-26T04:13:34;101146.50;;;12.13;100.00
44140;BME280;29803;51.048;4.686;2022-10-26T04:16:05;101139.28;;;12.13;100.00
44140;BME280;29803;51.048;4.686;2022-10-26T04:18:35;101150.03;;;12.13;100.00
44140;BME280;29803;51.048;4.686;2022-10-26T04:21:06;101148.03;;;12.15;100.00
44140;BME280;29803;51.048;4.686;2022-10-26T04:23:36;101145.00;;;12.18;100.00
44140;BME280;29803;51.048;4.686;2022-10-26T04:26:07;101136.94;;;12.18;100.00
44140;BME280;29803;51.048;4.686;2022-10-26T04:28:37;101142.16;;;12.20;100.00
44140;BME280;29803;51.048;4.686;2022-10-26T04:31:08;101147.34;;;12.22;100.00
44140;BME280;29803;51.048;4.686;2022-10-26T04:33:38;101143.66;;;12.23;100.00
44140;BME280;29803;51.048;4.686;2022-10-26T04:36:10;101139.94;;;12.24;100.00
44140;BME280;29803;51.048;4.686;2022-10-26T04:38:40;101148.69;;;12.26;100.00
44140;BME280;29803;51.048;4.686;2022-10-26T04:41:10;101146.00;;;12.26;100.00
44140;BME280;29803;51.048;4.686;2022-10-26T04:43:41;101146.66;;;12.28;100.00
44140;BME280;29803;51.048;4.686;2022-10-26T04:46:11;101151.88;;;12.29;100.00
44140;BME280;29803;51.048;4.686;2022-10-26T04:48:43;101160.31;;;12.26;100.00
44140;BME280;29803;51.048;4.686;2022-10-26T04:51:13;101153.06;;;12.27;100.00
44140;BME280;29803;51.048;4.686;2022-10-26T04:53:44;101149.38;;;12.28;100.00
44140;BME280;29803;51.048;4.686;2022-10-26T04:56:14;101148.53;;;12.27;100.00
44140;BME280;29803;51.048;4.686;2022-10-26T04:58:45;101151.03;;;12.29;100.00
44140;BME280;29803;51.048;4.686;2022-10-26T05:01:15;101163.47;;;12.30;100.00
44140;BME280;29803;51.048;4.686;2022-10-26T05:03:50;101159.09;;;12.29;100.00
44140;BME280;29803;51.048;4.686;2022-10-26T05:06:21;101157.44;;;12.28;100.00
44140;BME280;29803;51.048;4.686;2022-10-26T05:08:51;101160.13;;;12.28;100.00
44140;BME280;29803;51.048;4.686;2022-10-26T05:11:21;101164.34;;;12.30;100.00
44140;BME280;29803;51.048;4.686;2022-10-26T05:13:52;101160.28;;;12.34;100.00
44140;BME280;29803;51.048;4.686;2022-10-26T05:16:22;101165.50;;;12.36;100.00
44140;BME280;29803;51.048;4.686;2022-10-26T05:18:53;101170.19;;;12.42;100.00
44140;BME280;29803;51.048;4.686;2022-10-26T05:21:23;101171.03;;;12.42;100.00
44140;BME280;29803;51.048;4.686;2022-10-26T05:23:54;101170.53;;;12.39;100.00
44140;BME280;29803;51.048;4.686;2022-10-26T05:26:24;101173.41;;;12.37;100.00
44140;BME280;29803;51.048;4.686;2022-10-26T05:28:55;101173.72;;;12.34;100.00
44140;BME280;29803;51.048;4.686;2022-10-26T05:31:25;101175.56;;;12.34;100.00
44140;BME280;29803;51.048;4.686;2022-10-26T05:33:56;101180.97;;;12.42;100.00
44140;BME280;29803;51.048;4.686;2022-10-26T05:36:27;101172.19;;;12.48;100.00
44140;BME280;29803;51.048;4.686;2022-10-26T05:38:58;101177.59;;;12.56;100.00
44140;BME280;29803;51.048;4.686;2022-10-26T05:41:28;101174.19;;;12.62;100.00
44140;BME280;29803;51.048;4.686;2022-10-26T05:43:59;101166.25;;;12.69;100.00
44140;BME280;29803;51.048;4.686;2022-10-26T05:46:29;101164.41;;;12.78;100.00
44140;BME280;29803;51.048;4.686;2022-10-26T05:48:59;101169.09;;;12.84;100.00
44140;BME280;29803;51.048;4.686;2022-10-26T05:51:32;101167.72;;;12.96;100.00
44140;BME280;29803;51.048;4.686;2022-10-26T05:54:03;101161.94;;;13.07;100.00
44140;BME280;29803;51.048;4.686;2022-10-26T05:56:36;101159.53;;;13.20;100.00
44140;BME280;29803;51.048;4.686;2022-10-26T05:59:11;101151.00;;;13.40;100.00
44140;BME280;29803;51.048;4.686;2022-10-26T06:04:49;101155.72;;;13.46;100.00
44140;BME280;29803;51.048;4.686;2022-10-26T06:07:20;101157.72;;;13.44;100.00
44140;BME280;29803;51.048;4.686;2022-10-26T06:09:50;101168.19;;;13.47;100.00
44140;BME280;29803;51.048;4.686;2022-10-26T06:12:21;101173.50;;;13.55;100.00
44140;BME280;29803;51.048;4.686;2022-10-26T06:14:52;101178.19;;;13.61;100.00
44140;BME280;29803;51.048;4.686;2022-10-26T06:22:58;101193.63;;;13.76;100.00
44140;BME280;29803;51.048;4.686;2022-10-26T06:31:08;101195.72;;;13.88;100.00
44140;BME280;29803;51.048;4.686;2022-10-26T06:33:38;101190.50;;;13.87;100.00
44140;BME280;29803;51.048;4.686;2022-10-26T06:38:47;101190.53;;;13.79;100.00
44140;BME280;29803;51.048;4.686;2022-10-26T06:41:19;101198.00;;;13.77;100.00
44140;BME280;29803;51.048;4.686;2022-10-26T06:43:51;101202.06;;;13.72;100.00
44140;BME280;29803;51.048;4.686;2022-10-26T06:46:38;101200.00;;;13.74;100.00
44140;BME280;29803;51.048;4.686;2022-10-26T06:49:24;101202.34;;;13.78;100.00
44140;BME280;29803;51.048;4.686;2022-10-26T06:57:21;101253.66;;;13.92;100.00
44140;BME280;29803;51.048;4.686;2022-10-26T06:59:54;101248.78;;;13.96;100.00
44140;BME280;29803;51.048;4.686;2022-10-26T07:02:26;101250.56;;;14.04;100.00
44140;BME280;29803;51.048;4.686;2022-10-26T07:04:56;101253.22;;;14.12;100.00
44140;BME280;29803;51.048;4.686;2022-10-26T07:07:28;101232.69;;;14.25;100.00
44140;BME280;29803;51.048;4.686;2022-10-26T07:10:00;101230.59;;;14.36;100.00
44140;BME280;29803;51.048;4.686;2022-10-26T07:12:31;101241.97;;;14.46;100.00
44140;BME280;29803;51.048;4.686;2022-10-26T07:15:02;101239.72;;;14.58;100.00
44140;BME280;29803;51.048;4.686;2022-10-26T07:17:46;101257.69;;;14.65;100.00
44140;BME280;29803;51.048;4.686;2022-10-26T07:20:19;101251.91;;;14.68;100.00
44140;BME280;29803;51.048;4.686;2022-10-26T07:22:54;101262.72;;;14.68;100.00
44140;BME280;29803;51.048;4.686;2022-10-26T07:25:25;101263.06;;;14.65;100.00
44140;BME280;29803;51.048;4.686;2022-10-26T07:27:58;101262.72;;;14.68;100.00
44140;BME280;29803;51.048;4.686;2022-10-26T07:30:30;101269.19;;;14.82;100.00
44140;BME280;29803;51.048;4.686;2022-10-26T07:33:05;101269.28;;;15.03;100.00
44140;BME280;29803;51.048;4.686;2022-10-26T07:35:36;101280.31;;;15.32;100.00
44140;BME280;29803;51.048;4.686;2022-10-26T07:38:07;101277.00;;;15.51;100.00
44140;BME280;29803;51.048;4.686;2022-10-26T07:40:38;101280.00;;;15.71;100.00
44140;BME280;29803;51.048;4.686;2022-10-26T07:43:08;101281.38;;;16.18;100.00
44140;BME280;29803;51.048;4.686;2022-10-26T07:45:39;101288.41;;;16.55;100.00
44140;BME280;29803;51.048;4.686;2022-10-26T07:48:09;101282.00;;;16.84;100.00
44140;BME280;29803;51.048;4.686;2022-10-26T07:50:40;101281.91;;;17.33;100.00
44140;BME280;29803;51.048;4.686;2022-10-26T07:53:10;101297.63;;;17.51;100.00
44140;BME280;29803;51.048;4.686;2022-10-26T07:55:41;101290.09;;;17.47;100.00
44140;BME280;29803;51.048;4.686;2022-10-26T07:58:11;101299.00;;;17.69;100.00
44140;BME280;29803;51.048;4.686;2022-10-26T08:00:42;101304.16;;;17.98;100.00
44140;BME280;29803;51.048;4.686;2022-10-26T08:03:12;101301.84;;;18.02;100.00
44140;BME280;29803;51.048;4.686;2022-10-26T08:05:46;101303.38;;;18.24;100.00
44140;BME280;29803;51.048;4.686;2022-10-26T08:08:20;101311.78;;;18.56;100.00
44140;BME280;29803;51.048;4.686;2022-10-26T08:10:51;101297.81;;;19.05;100.00
44140;BME280;29803;51.048;4.686;2022-10-26T08:13:22;101299.28;;;18.95;100.00
44140;BME280;29803;51.048;4.686;2022-10-26T08:15:57;101300.28;;;19.07;100.00
44140;BME280;29803;51.048;4.686;2022-10-26T08:18:27;101297.41;;;18.95;100.00
44140;BME280;29803;51.048;4.686;2022-10-26T08:21:05;101313.28;;;18.72;100.00
44140;BME280;29803;51.048;4.686;2022-10-26T08:23:36;101321.66;;;18.97;100.00
44140;BME280;29803;51.048;4.686;2022-10-26T08:26:07;101324.34;;;19.17;100.00
44140;BME280;29803;51.048;4.686;2022-10-26T08:28:40;101327.06;;;18.97;100.00
44140;BME280;29803;51.048;4.686;2022-10-26T08:31:11;101330.84;;;19.15;100.00
44140;BME280;29803;51.048;4.686;2022-10-26T08:33:42;101335.25;;;19.10;100.00
44140;BME280;29803;51.048;4.686;2022-10-26T08:36:13;101349.59;;;19.50;100.00
44140;BME280;29803;51.048;4.686;2022-10-26T08:38:49;101351.81;;;19.86;100.00
44140;BME280;29803;51.048;4.686;2022-10-26T08:41:30;101360.34;;;20.41;100.00
44140;BME280;29803;51.048;4.686;2022-10-26T08:47:18;101367.66;;;21.36;100.00
44140;BME280;29803;51.048;4.686;2022-10-26T08:50:03;101367.44;;;21.92;100.00
44140;BME280;29803;51.048;4.686;2022-10-26T08:52:45;101367.28;;;21.87;100.00
44140;BME280;29803;51.048;4.686;2022-10-26T08:55:24;101359.72;;;21.53;100.00
44140;BME280;29803;51.048;4.686;2022-10-26T08:57:56;101366.69;;;21.85;100.00
44140;BME280;29803;51.048;4.686;2022-10-26T09:00:29;101369.19;;;22.05;100.00
44140;BME280;29803;51.048;4.686;2022-10-26T09:03:00;101370.47;;;22.21;100.00
44140;BME280;29803;51.048;4.686;2022-10-26T09:06:03;101377.75;;;22.27;100.00
44140;BME280;29803;51.048;4.686;2022-10-26T09:24:53;101394.09;;;20.54;100.00
44140;BME280;29803;51.048;4.686;2022-10-26T09:29:57;101409.63;;;20.47;100.00
44140;BME280;29803;51.048;4.686;2022-10-26T09:32:42;101404.44;;;20.32;100.00
44140;BME280;29803;51.048;4.686;2022-10-26T09:35:21;101406.56;;;20.68;100.00
44140;BME280;29803;51.048;4.686;2022-10-26T09:41:05;101419.63;;;20.91;100.00
44140;BME280;29803;51.048;4.686;2022-10-26T09:47:02;101426.22;;;20.77;100.00
44140;BME280;29803;51.048;4.686;2022-10-26T09:49:44;101438.47;;;20.99;100.00
44140;BME280;29803;51.048;4.686;2022-10-26T09:52:17;101433.53;;;21.14;100.00
44140;BME280;29803;51.048;4.686;2022-10-26T09:54:48;101430.63;;;20.78;100.00
44140;BME280;29803;51.048;4.686;2022-10-26T09:57:19;101431.59;;;20.58;100.00
44140;BME280;29803;51.048;4.686;2022-10-26T09:59:51;101441.09;;;20.81;100.00
44140;BME280;29803;51.048;4.686;2022-10-26T10:02:35;101446.19;;;20.71;100.00
44140;BME280;29803;51.048;4.686;2022-10-26T10:08:10;101450.63;;;20.65;100.00
44140;BME280;29803;51.048;4.686;2022-10-26T10:11:07;101449.72;;;20.26;100.00
44140;BME280;29803;51.048;4.686;2022-10-26T10:13:40;101459.97;;;20.31;100.00
44140;BME280;29803;51.048;4.686;2022-10-26T10:16:23;101452.22;;;20.34;100.00
44140;BME280;29803;51.048;4.686;2022-10-26T10:18:57;101456.19;;;20.32;100.00
44140;BME280;29803;51.048;4.686;2022-10-26T10:21:53;101462.25;;;20.40;100.00
44140;BME280;29803;51.048;4.686;2022-10-26T10:24:29;101462.41;;;20.59;100.00
44140;BME280;29803;51.048;4.686;2022-10-26T10:29:48;101484.03;;;20.47;100.00
44140;BME280;29803;51.048;4.686;2022-10-26T10:32:29;101486.13;;;20.52;100.00
44140;BME280;29803;51.048;4.686;2022-10-26T10:35:01;101495.97;;;20.53;100.00
44140;BME280;29803;51.048;4.686;2022-10-26T10:37:40;101493.59;;;20.63;100.00
44140;BME280;29803;51.048;4.686;2022-10-26T10:42:51;101507.06;;;20.96;100.00
44140;BME280;29803;51.048;4.686;2022-10-26T10:45:24;101504.75;;;21.00;100.00
44140;BME280;29803;51.048;4.686;2022-10-26T10:56:25;101506.84;;;20.98;100.00
44140;BME280;29803;51.048;4.686;2022-10-26T11:04:33;101522.53;;;21.09;100.00
44140;BME280;29803;51.048;4.686;2022-10-26T11:07:08;101521.84;;;21.20;100.00
44140;BME280;29803;51.048;4.686;2022-10-26T11:09:43;101529.53;;;21.30;100.00
44140;BME280;29803;51.048;4.686;2022-10-26T11:15:04;101545.03;;;21.04;100.00
44140;BME280;29803;51.048;4.686;2022-10-26T11:17:47;101548.16;;;21.01;100.00
44140;BME280;29803;51.048;4.686;2022-10-26T11:20:23;101542.81;;;20.81;100.00
44140;BME280;29803;51.048;4.686;2022-10-26T11:23:09;101555.38;;;20.82;100.00
44140;BME280;29803;51.048;4.686;2022-10-26T11:26:16;101555.22;;;20.77;100.00
44140;BME280;29803;51.048;4.686;2022-10-26T11:28:56;101564.88;;;20.73;100.00
44140;BME280;29803;51.048;4.686;2022-10-26T11:31:38;101577.25;;;20.76;100.00
44140;BME280;29803;51.048;4.686;2022-10-26T11:34:20;101568.91;;;20.64;100.00
44140;BME280;29803;51.048;4.686;2022-10-26T11:37:03;101576.63;;;20.74;100.00
44140;BME280;29803;51.048;4.686;2022-10-26T11:39:45;101569.94;;;20.69;100.00
44140;BME280;29803;51.048;4.686;2022-10-26T11:45:08;101568.09;;;20.43;100.00
44140;BME280;29803;51.048;4.686;2022-10-26T11:47:44;101568.94;;;20.51;100.00
44140;BME280;29803;51.048;4.686;2022-10-26T11:50:29;101570.63;;;20.52;100.00
44140;BME280;29803;51.048;4.686;2022-10-26T11:53:15;101573.97;;;20.54;100.00
44140;BME280;29803;51.048;4.686;2022-10-26T11:55:51;101575.84;;;20.60;100.00
44140;BME280;29803;51.048;4.686;2022-10-26T11:58:25;101572.25;;;20.66;100.00
44140;BME280;29803;51.048;4.686;2022-10-26T12:01:02;101572.47;;;20.58;100.00
44140;BME280;29803;51.048;4.686;2022-10-26T12:03:37;101568.28;;;20.68;100.00
44140;BME280;29803;51.048;4.686;2022-10-26T12:06:19;101565.94;;;20.72;100.00
44140;BME280;29803;51.048;4.686;2022-10-26T12:09:14;101561.28;;;20.79;100.00
44140;BME280;29803;51.048;4.686;2022-10-26T12:11:50;101570.38;;;20.53;100.00
44140;BME280;29803;51.048;4.686;2022-10-26T12:14:41;101578.34;;;20.61;100.00
44140;BME280;29803;51.048;4.686;2022-10-26T12:17:17;101585.28;;;20.57;100.00
44140;BME280;29803;51.048;4.686;2022-10-26T12:22:40;101608.78;;;20.58;100.00
44140;BME280;29803;51.048;4.686;2022-10-26T12:30:25;101601.25;;;20.54;100.00
44140;BME280;29803;51.048;4.686;2022-10-26T12:33:01;101589.84;;;20.70;100.00
44140;BME280;29803;51.048;4.686;2022-10-26T12:35:37;101600.22;;;20.93;100.00
44140;BME280;29803;51.048;4.686;2022-10-26T12:41:10;101603.41;;;20.90;100.00
44140;BME280;29803;51.048;4.686;2022-10-26T12:43:43;101589.50;;;20.47;100.00
44140;BME280;29803;51.048;4.686;2022-10-26T12:54:56;101595.91;;;20.72;100.00
44140;BME280;29803;51.048;4.686;2022-10-26T12:56:55;101601.34;;;20.85;100.00
44140;BME280;29803;51.048;4.686;2022-10-26T12:59:38;101604.75;;;20.74;100.00
44140;BME280;29803;51.048;4.686;2022-10-26T13:08:20;101609.53;;;20.72;100.00
44140;BME280;29803;51.048;4.686;2022-10-26T13:11:23;101611.66;;;20.70;100.00
44140;BME280;29803;51.048;4.686;2022-10-26T13:13:59;101612.47;;;20.77;100.00
44140;BME280;29803;51.048;4.686;2022-10-26T13:16:31;101612.28;;;20.79;100.00
44140;BME280;29803;51.048;4.686;2022-10-26T13:19:03;101604.09;;;20.72;100.00
44140;BME280;29803;51.048;4.686;2022-10-26T13:21:44;101610.84;;;20.69;100.00
44140;BME280;29803;51.048;4.686;2022-10-26T13:24:19;101617.97;;;20.64;100.00
44140;BME280;29803;51.048;4.686;2022-10-26T13:32:37;101627.19;;;20.63;100.00
44140;BME280;29803;51.048;4.686;2022-10-26T13:35:12;101612.94;;;20.61;100.00
44140;BME280;29803;51.048;4.686;2022-10-26T13:37:46;101629.91;;;20.63;100.00
44140;BME280;29803;51.048;4.686;2022-10-26T13:40:20;101629.31;;;20.54;100.00
44140;BME280;29803;51.048;4.686;2022-10-26T13:43:02;101631.63;;;20.64;100.00
44140;BME280;29803;51.048;4.686;2022-10-26T13:45:45;101617.97;;;20.64;100.00
44140;BME280;29803;51.048;4.686;2022-10-26T13:48:26;101628.25;;;20.62;100.00
44140;BME280;29803;51.048;4.686;2022-10-26T13:51:20;101619.00;;;20.69;100.00
44140;BME280;29803;51.048;4.686;2022-10-26T13:53:58;101630.56;;;20.65;100.00
44140;BME280;29803;51.048;4.686;2022-10-26T13:56:36;101639.59;;;20.52;100.00
44140;BME280;29803;51.048;4.686;2022-10-26T13:59:12;101644.00;;;20.47;100.00
44140;BME280;29803;51.048;4.686;2022-10-26T14:01:43;101651.13;;;20.48;100.00
44140;BME280;29803;51.048;4.686;2022-10-26T14:04:15;101655.53;;;20.55;100.00
44140;BME280;29803;51.048;4.686;2022-10-26T14:06:50;101649.22;;;20.61;100.00
44140;BME280;29803;51.048;4.686;2022-10-26T14:09:22;101655.50;;;20.68;100.00
44140;BME280;29803;51.048;4.686;2022-10-26T14:11:55;101656.97;;;20.71;100.00
44140;BME280;29803;51.048;4.686;2022-10-26T14:14:32;101655.94;;;20.65;100.00
44140;BME280;29803;51.048;4.686;2022-10-26T14:17:04;101668.94;;;20.57;100.00
44140;BME280;29803;51.048;4.686;2022-10-26T14:19:37;101668.94;;;20.57;100.00
44140;BME280;29803;51.048;4.686;2022-10-26T14:22:18;101672.09;;;20.60;100.00
44140;BME280;29803;51.048;4.686;2022-10-26T14:24:58;101668.47;;;20.73;100.00
44140;BME280;29803;51.048;4.686;2022-10-26T14:27:37;101677.53;;;20.74;100.00
44140;BME280;29803;51.048;4.686;2022-10-26T14:30:32;101681.50;;;20.71;100.00
44140;BME280;29803;51.048;4.686;2022-10-26T14:33:16;101685.72;;;20.54;100.00
44140;BME280;29803;51.048;4.686;2022-10-26T14:35:48;101683.19;;;20.46;100.00
44140;BME280;29803;51.048;4.686;2022-10-26T14:38:22;101690.75;;;20.43;100.00
44140;BME280;29803;51.048;4.686;2022-10-26T14:40:56;101690.09;;;20.41;100.00
44140;BME280;29803;51.048;4.686;2022-10-26T14:43:27;101699.31;;;20.27;100.00
44140;BME280;29803;51.048;4.686;2022-10-26T14:45:58;101702.69;;;20.09;100.00
44140;BME280;29803;51.048;4.686;2022-10-26T14:48:33;101710.63;;;20.11;100.00
44140;BME280;29803;51.048;4.686;2022-10-26T14:51:08;101713.38;;;20.17;100.00
44140;BME280;29803;51.048;4.686;2022-10-26T14:53:46;101718.19;;;20.22;100.00
44140;BME280;29803;51.048;4.686;2022-10-26T14:56:27;101711.28;;;20.20;100.00
44140;BME280;29803;51.048;4.686;2022-10-26T14:58:58;101708.16;;;20.29;100.00
44140;BME280;29803;51.048;4.686;2022-10-26T15:01:30;101714.00;;;20.26;100.00
44140;BME280;29803;51.048;4.686;2022-10-26T15:04:04;101709.81;;;20.17;100.00
44140;BME280;29803;51.048;4.686;2022-10-26T15:06:42;101716.31;;;20.09;100.00
44140;BME280;29803;51.048;4.686;2022-10-26T15:09:32;101716.09;;;20.11;100.00
44140;BME280;29803;51.048;4.686;2022-10-26T15:12:20;101721.53;;;20.11;100.00
44140;BME280;29803;51.048;4.686;2022-10-26T15:14:52;101709.81;;;20.10;100.00
44140;BME280;29803;51.048;4.686;2022-10-26T15:17:25;101720.28;;;20.07;100.00
44140;BME280;29803;51.048;4.686;2022-10-26T15:20:02;101727.00;;;20.04;100.00
44140;BME280;29803;51.048;4.686;2022-10-26T15:22:33;101733.06;;;20.00;100.00
44140;BME280;29803;51.048;4.686;2022-10-26T15:25:04;101729.69;;;19.91;100.00
44140;BME280;29803;51.048;4.686;2022-10-26T15:27:35;101729.69;;;19.84;100.00
44140;BME280;29803;51.048;4.686;2022-10-26T15:30:26;101731.97;;;19.81;100.00
44140;BME280;29803;51.048;4.686;2022-10-26T15:33:16;101738.66;;;19.78;100.00
44140;BME280;29803;51.048;4.686;2022-10-26T15:35:47;101738.22;;;19.75;100.00
44140;BME280;29803;51.048;4.686;2022-10-26T15:38:17;101738.84;;;19.70;100.00
44140;BME280;29803;51.048;4.686;2022-10-26T15:40:48;101742.78;;;19.61;100.00
44140;BME280;29803;51.048;4.686;2022-10-26T15:43:18;101734.38;;;19.56;100.00